createdAt,value
2017-12-28T15:01:45.651Z,6.03
2017-12-28T15:04:14.787Z,9.90
2017-12-28T15:06:43.162Z,7.80
2017-12-28T15:09:11.546Z,6.20
2017-12-28T15:11:39.918Z,6.57
2017-12-28T15:14:08.295Z,7.07
2017-12-28T15:16:36.775Z,7.10
2017-12-28T15:19:05.177Z,5.70
2017-12-28T15:21:33.733Z,6.20
2017-12-28T15:24:02.109Z,5.20
2017-12-28T15:26:30.485Z,5.43
2017-12-28T15:28:59.625Z,5.20
2017-12-28T15:31:28.009Z,5.60
2017-12-28T15:33:56.381Z,5.00
2017-12-28T15:36:24.761Z,4.53
2017-12-28T15:38:53.166Z,4.73
2017-12-28T15:41:22.296Z,4.37
2017-12-28T15:43:50.662Z,5.17
2017-12-28T15:46:19.148Z,5.30
2017-12-28T15:48:47.518Z,4.37
2017-12-28T15:51:15.902Z,4.87
2017-12-28T15:53:44.725Z,5.30
2017-12-28T15:56:13.108Z,5.67
2017-12-28T15:58:41.494Z,4.77
2017-12-28T16:01:09.870Z,5.70
2017-12-28T16:03:38.245Z,4.20
2017-12-28T16:06:06.621Z,4.50
2017-12-28T16:08:35.005Z,5.83
2017-12-28T16:11:03.396Z,5.30
2017-12-28T16:13:31.771Z,5.87
2017-12-28T16:16:00.159Z,5.10
2017-12-28T16:18:29.289Z,6.17
2017-12-28T16:20:57.676Z,5.10
2017-12-28T16:23:26.060Z,6.03
2017-12-28T16:25:54.455Z,5.50
2017-12-28T16:28:22.833Z,4.90
2017-12-28T16:30:51.215Z,5.13
2017-12-28T16:33:19.590Z,5.30
2017-12-28T16:35:47.969Z,5.23
2017-12-28T16:38:16.178Z,4.70
2017-12-28T16:40:45.314Z,4.73
2017-12-28T16:43:13.689Z,5.97
2017-12-28T16:45:41.874Z,6.10
2017-12-28T16:48:10.613Z,5.20
2017-12-28T16:50:39.753Z,5.97
2017-12-28T16:53:08.221Z,5.50
2017-12-28T16:55:36.588Z,5.57
2017-12-28T16:58:04.969Z,4.50
2017-12-28T17:00:33.349Z,4.90
2017-12-28T17:03:01.713Z,4.63
2017-12-28T17:05:30.092Z,4.73
2017-12-28T17:07:58.481Z,5.60
2017-12-28T17:10:26.857Z,5.67
2017-12-28T17:12:55.231Z,4.90
2017-12-28T17:15:23.606Z,5.47
2017-12-28T17:17:51.978Z,5.30
2017-12-28T17:20:20.362Z,5.70
2017-12-28T17:22:48.982Z,5.53
2017-12-28T17:25:17.676Z,4.85
2017-12-28T17:27:46.368Z,5.00
2017-12-28T17:30:15.023Z,4.75
2017-12-28T17:32:43.401Z,4.50
2017-12-28T17:35:11.781Z,4.07
2017-12-28T17:37:40.440Z,4.50
2017-12-28T17:40:09.081Z,5.15
2017-12-28T17:42:37.727Z,4.97
2017-12-28T17:45:06.281Z,4.90
2017-12-28T17:47:34.665Z,5.67
2017-12-28T17:50:03.055Z,4.30
2017-12-28T17:52:31.465Z,5.87
2017-12-28T17:55:00.111Z,5.40
2017-12-28T17:57:28.494Z,4.53
2017-12-28T17:59:57.922Z,5.03
2017-12-28T18:02:26.577Z,5.63
2017-12-28T18:04:54.952Z,4.77
2017-12-28T18:07:24.216Z,5.30
2017-12-28T18:09:53.366Z,4.10
2017-12-28T18:12:21.812Z,4.60
2017-12-28T18:14:50.308Z,4.33
2017-12-28T18:17:18.944Z,4.95
2017-12-28T18:19:48.410Z,4.30
2017-12-28T18:22:17.832Z,4.07
2017-12-28T18:24:46.374Z,4.20
2017-12-28T18:27:15.775Z,4.53
2017-12-28T18:29:44.158Z,4.67
2017-12-28T18:32:12.808Z,4.32
2017-12-28T18:34:41.233Z,3.80
2017-12-28T18:37:10.682Z,4.37
2017-12-28T18:39:39.144Z,5.40
2017-12-28T18:42:08.512Z,4.63
2017-12-28T18:44:37.093Z,4.70
2017-12-28T18:47:06.506Z,4.82
2017-12-28T18:49:35.930Z,4.20
2017-12-28T18:52:04.646Z,5.03
2017-12-28T18:54:33.209Z,4.20
2017-12-28T18:57:01.852Z,4.83
2017-12-28T18:59:30.239Z,4.30
2017-12-28T19:01:59.007Z,5.60
2017-12-28T19:04:28.429Z,6.67
2017-12-28T19:06:56.929Z,4.77
2017-12-28T19:09:25.917Z,6.00
2017-12-28T19:11:54.313Z,5.90
2017-12-28T19:14:23.889Z,4.60
2017-12-28T19:16:52.265Z,6.00
2017-12-28T19:19:21.809Z,5.73
2017-12-28T19:21:50.465Z,5.40
2017-12-28T19:24:18.861Z,5.33
2017-12-28T19:26:47.237Z,5.77
2017-12-28T19:29:15.905Z,8.77
2017-12-28T19:31:44.580Z,6.65
2017-12-28T19:34:13.009Z,10.37
2017-12-28T19:36:42.160Z,6.50
2017-12-28T19:39:10.534Z,6.97
2017-12-28T19:41:38.901Z,7.57
2017-12-28T19:44:07.424Z,7.00
2017-12-28T19:46:35.796Z,7.20
2017-12-28T19:49:03.832Z,8.03
2017-12-28T19:51:32.218Z,6.80
2017-12-28T19:54:00.594Z,7.60
2017-12-28T19:56:28.976Z,6.57
2017-12-28T19:58:57.033Z,7.10
2017-12-28T20:01:26.445Z,6.32
2017-12-28T20:03:55.146Z,6.00
2017-12-28T20:06:23.876Z,6.20
2017-12-28T20:08:52.281Z,5.70
2017-12-28T20:11:20.949Z,5.80
2017-12-28T20:13:49.621Z,6.53
2017-12-28T20:16:18.005Z,4.67
2017-12-28T20:18:46.401Z,5.30
2017-12-28T20:21:14.793Z,5.57
2017-12-28T20:23:43.488Z,5.90
2017-12-28T20:26:12.141Z,6.22
2017-12-28T20:28:40.527Z,5.30
2017-12-28T20:31:09.939Z,6.55
2017-12-28T20:33:38.628Z,6.20
2017-12-28T20:36:07.189Z,6.10
2017-12-28T20:38:35.592Z,6.33
2017-12-28T20:41:04.158Z,6.20
2017-12-28T20:43:33.584Z,6.70
2017-12-28T20:46:02.260Z,5.73
2017-12-28T20:48:30.634Z,6.40
2017-12-28T20:50:59.040Z,6.20
2017-12-28T20:53:27.414Z,6.43
2017-12-28T20:55:55.790Z,5.50
2017-12-28T20:58:24.354Z,6.47
2017-12-28T21:00:52.740Z,6.27
2017-12-28T21:03:21.414Z,6.70
2017-12-28T21:05:50.205Z,8.65
2017-12-28T21:08:19.484Z,5.60
2017-12-28T21:10:48.170Z,5.90
2017-12-28T21:13:17.611Z,6.05
2017-12-28T21:15:45.985Z,6.13
2017-12-28T21:18:14.361Z,6.80
2017-12-28T21:20:42.419Z,5.40
2017-12-28T21:23:10.881Z,7.03
2017-12-28T21:25:39.586Z,6.90
2017-12-28T21:28:07.975Z,5.70
2017-12-28T21:30:37.462Z,7.05
2017-12-28T21:33:06.271Z,6.75
2017-12-28T21:35:35.456Z,6.30
2017-12-28T21:38:03.836Z,5.40
2017-12-28T21:40:32.525Z,6.40
2017-12-28T21:43:00.904Z,6.23
2017-12-28T21:45:29.550Z,5.12
2017-12-28T21:47:58.228Z,5.50
2017-12-28T21:50:27.444Z,4.50
2017-12-28T21:52:56.092Z,5.03
2017-12-28T21:55:24.748Z,5.18
2017-12-28T21:57:53.378Z,4.63
2017-12-28T22:00:21.562Z,4.30
2017-12-28T22:02:50.062Z,4.40
2017-12-28T22:05:18.741Z,4.20
2017-12-28T22:07:47.126Z,4.60
2017-12-28T22:10:15.777Z,5.20
2017-12-28T22:12:44.429Z,4.57
2017-12-28T22:15:13.075Z,5.90
2017-12-28T22:17:41.777Z,5.50
2017-12-28T22:20:10.353Z,5.17
2017-12-28T22:22:38.725Z,5.83
2017-12-28T22:25:07.373Z,6.07
2017-12-28T22:27:35.767Z,5.50
2017-12-28T22:30:04.055Z,5.30
2017-12-28T22:32:32.432Z,4.93
2017-12-28T22:35:00.813Z,4.43
2017-12-28T22:37:29.218Z,5.53
2017-12-28T22:39:57.594Z,5.20
2017-12-28T22:42:25.978Z,4.70
2017-12-28T22:44:55.122Z,5.20
2017-12-28T22:47:23.498Z,4.20
2017-12-28T22:49:51.922Z,4.80
2017-12-28T22:52:20.303Z,4.63
2017-12-28T22:54:48.685Z,4.37
2017-12-28T22:57:17.858Z,5.30
2017-12-28T22:59:46.241Z,4.80
2017-12-28T23:02:15.397Z,4.83
2017-12-28T23:04:43.785Z,3.50
2017-12-28T23:07:12.165Z,4.87
2017-12-28T23:09:40.557Z,4.57
2017-12-28T23:12:08.953Z,4.10
2017-12-28T23:14:37.328Z,4.10
2017-12-28T23:17:06.478Z,4.70
2017-12-28T23:19:34.870Z,3.50
2017-12-28T23:22:03.266Z,4.07
2017-12-28T23:24:31.648Z,3.90
2017-12-28T23:27:00.041Z,3.93
2017-12-28T23:29:28.432Z,3.80
2017-12-28T23:31:57.566Z,4.70
2017-12-28T23:34:25.758Z,4.33
2017-12-28T23:36:54.141Z,3.77
2017-12-28T23:39:22.539Z,3.73
2017-12-28T23:41:52.445Z,5.00
2017-12-28T23:44:20.855Z,5.10
2017-12-28T23:46:49.258Z,4.63
2017-12-28T23:49:17.649Z,4.47
2017-12-28T23:51:46.085Z,4.80
2017-12-28T23:54:15.237Z,4.00
2017-12-28T23:56:43.617Z,4.10
2017-12-28T23:59:11.996Z,4.30
